logo
Search for airport 
image banner adimage banner adimage banner ad
image banner ad

FALOBA - Lobatse Southeast

Located in , South Africa

ICAO - , IATA -

Data provided by Airmate  

General information

Coordinates: S25°14'46" E25°52'55"
Elevation is 3743 feet MSL.
 
View others Airports in North-West

Operational data

Special qualification required
Current time UTC:
Current local time:
METAR: FBSK 151000Z 06007KT 030V090 9999 SCT014 SCT019 BKN070 17/15 Q1025 NOSIG
TAF: TAF FBSK 151000Z 1512/1618 06007KT 9999 SCT030 FEW035CB BKN070 PROB30 TEMPO 1512/1515 TSRA BECMG 1516/1518 CAVOK
View NOTAMs / SUP AIP / TFR affecting this airport [VIEW]
Communications frequencies: [VIEW]

Runways:

RWY identifierQFULength (ft)Width (ft)SurfaceLDA (ft)
16110°328149SAND
34290°328149SAND

Airport contact information

Address: South Africa

Satellite view of FALOBA